Time;durP1;ratioP1;P1;durP2;ratioP2;P2;SDS_P1;SDS_P2;PMS_P1;PMS_P2;Temp;Humidity;BMP_temperature;BMP_pressure;BME280_temperature;BME280_humidity;BME280_pressure;Samples;Min_cycle;Max_cycle;Signal;HPM_P1;HPM_P2
2023/03/16 00:00:50;;;;;;;10.30;5.70;;;0.60;99.90;;;;;;4901501;29;20461;-77
2023/03/16 00:03:19;;;;;;;7.60;5.10;;;0.60;99.90;;;;;;4901796;29;20461;-77
2023/03/16 00:05:50;;;;;;;11.43;6.13;;;0.60;99.90;;;;;;4900355;29;20816;-77
2023/03/16 00:08:20;;;;;;;8.20;5.70;;;0.60;99.90;;;;;;4900549;29;20949;-77
2023/03/16 00:10:48;;;;;;;8.13;5.70;;;0.60;99.90;;;;;;4900164;29;20492;-77
2023/03/16 00:13:18;;;;;;;12.13;6.07;;;0.60;99.90;;;;;;4900184;29;20440;-77
2023/03/16 00:15:50;;;;;;;7.93;5.30;;;0.60;99.90;;;;;;4899973;29;20459;-77
2023/03/16 00:18:18;;;;;;;7.60;5.53;;;0.60;99.90;;;;;;4900034;29;20497;-77
2023/03/16 00:20:52;;;;;;;9.90;6.20;;;0.60;99.90;;;;;;4901803;29;20803;-77
2023/03/16 00:23:26;;;;;;;10.43;5.37;;;0.60;99.90;;;;;;4902016;29;20814;-77
2023/03/16 00:25:55;;;;;;;8.50;4.90;;;0.60;99.90;;;;;;4900212;29;20440;-78
2023/03/16 00:28:23;;;;;;;5.90;4.70;;;0.60;99.90;;;;;;4899787;29;20960;-77
2023/03/16 00:30:51;;;;;;;7.63;4.50;;;0.70;99.90;;;;;;4899880;29;20908;-77
2023/03/16 00:33:19;;;;;;;7.90;4.70;;;0.70;99.90;;;;;;4899877;29;20481;-77
2023/03/16 00:35:49;;;;;;;7.10;4.80;;;0.60;99.90;;;;;;4900046;29;20479;-77
2023/03/16 00:38:20;;;;;;;10.87;5.03;;;0.60;99.90;;;;;;4901292;29;21002;-77
2023/03/16 00:40:50;;;;;;;7.90;4.23;;;0.60;99.90;;;;;;4899844;29;20500;-77
2023/03/16 00:43:18;;;;;;;7.23;4.57;;;0.60;99.90;;;;;;4899690;29;20458;-77
2023/03/16 00:45:46;;;;;;;8.77;4.60;;;0.60;99.90;;;;;;4899505;29;20453;-77
2023/03/16 00:48:15;;;;;;;8.97;4.87;;;0.60;99.90;;;;;;4899561;29;20464;-77
2023/03/16 00:50:43;;;;;;;8.57;5.37;;;0.60;99.90;;;;;;4899427;29;21140;-78
2023/03/16 00:53:12;;;;;;;5.97;4.17;;;0.60;99.90;;;;;;4899435;29;20462;-78
2023/03/16 00:55:41;;;;;;;6.77;4.23;;;0.60;99.90;;;;;;4900614;29;20434;-77
2023/03/16 00:58:13;;;;;;;7.80;4.77;;;0.60;99.90;;;;;;4899624;29;20458;-77
2023/03/16 01:00:42;;;;;;;7.43;5.33;;;0.60;99.90;;;;;;4899244;29;20474;-77
2023/03/16 01:03:10;;;;;;;6.00;4.87;;;0.60;99.90;;;;;;4898630;29;20454;-77
2023/03/16 01:05:42;;;;;;;8.40;5.57;;;0.60;99.90;;;;;;4899250;29;20458;-78
2023/03/16 01:08:10;;;;;;;7.40;4.33;;;0.60;99.90;;;;;;4899162;29;20457;-78
2023/03/16 01:10:39;;;;;;;7.57;4.23;;;0.60;99.90;;;;;;4898982;29;20465;-78
2023/03/16 01:13:08;;;;;;;7.73;4.53;;;0.60;99.90;;;;;;4899131;29;20864;-78
2023/03/16 01:15:37;;;;;;;6.47;4.30;;;0.50;99.90;;;;;;4899130;29;20512;-78
2023/03/16 01:18:05;;;;;;;6.40;4.27;;;0.50;99.90;;;;;;4899004;29;20456;-77
2023/03/16 01:20:33;;;;;;;9.10;5.30;;;0.50;99.90;;;;;;4898874;29;20482;-77
2023/03/16 01:23:02;;;;;;;10.33;4.90;;;0.50;99.90;;;;;;4898973;29;20452;-77
2023/03/16 01:25:31;;;;;;;9.40;3.80;;;0.50;99.90;;;;;;4898847;29;20465;-77
2023/03/16 01:28:00;;;;;;;7.10;4.90;;;0.50;99.90;;;;;;4898842;29;20528;-77
2023/03/16 01:30:30;;;;;;;7.20;4.67;;;0.50;99.90;;;;;;4900097;29;20502;-78
2023/03/16 01:32:58;;;;;;;5.77;3.00;;;0.50;99.90;;;;;;4898774;29;20525;-77
2023/03/16 01:35:26;;;;;;;8.27;4.83;;;0.50;99.90;;;;;;4898944;29;20464;-77
2023/03/16 01:37:55;;;;;;;6.50;4.00;;;0.50;99.90;;;;;;4898635;29;20805;-77
2023/03/16 01:40:25;;;;;;;6.40;4.17;;;0.40;99.90;;;;;;4898482;29;21034;-77
2023/03/16 01:43:01;;;;;;;6.00;3.67;;;0.40;99.90;;;;;;4899864;29;20455;-77
2023/03/16 01:46:21;;;;;;;8.47;4.17;;;0.50;99.90;;;;;;4898814;29;20495;-78
2023/03/16 01:49:09;;;;;;;9.10;4.30;;;0.40;99.90;;;;;;4898555;29;20488;-77
2023/03/16 01:51:45;;;;;;;6.13;3.80;;;0.40;99.90;;;;;;4898466;29;20544;-77
2023/03/16 01:54:21;;;;;;;6.27;3.73;;;0.30;99.90;;;;;;4898378;29;20453;-77
2023/03/16 01:56:58;;;;;;;6.30;3.80;;;0.30;99.90;;;;;;4898329;29;20456;-77
2023/03/16 01:59:30;;;;;;;7.60;4.73;;;0.30;99.90;;;;;;4898102;29;20483;-77
2023/03/16 02:01:58;;;;;;;6.20;4.50;;;0.30;99.90;;;;;;4899513;29;20505;-77
2023/03/16 02:04:42;;;;;;;6.33;4.20;;;0.30;99.90;;;;;;4898442;29;20453;-77
2023/03/16 02:07:15;;;;;;;7.33;4.03;;;0.30;99.90;;;;;;4898316;29;20821;-77
2023/03/16 02:09:48;;;;;;;8.57;4.80;;;0.30;99.90;;;;;;4898225;29;20477;-77
2023/03/16 02:12:18;;;;;;;6.80;4.00;;;0.30;99.90;;;;;;4898160;29;20445;-77
2023/03/16 02:14:52;;;;;;;6.23;3.57;;;0.20;99.90;;;;;;4897518;29;20449;-77
2023/03/16 02:17:23;;;;;;;7.20;4.47;;;0.30;99.90;;;;;;4897995;29;20453;-77
2023/03/16 02:20:11;;;;;;;8.20;4.03;;;0.20;99.90;;;;;;4897849;29;21056;-77
2023/03/16 02:22:43;;;;;;;7.20;4.13;;;0.20;99.90;;;;;;4898118;29;20452;-77
2023/03/16 02:25:14;;;;;;;8.27;4.07;;;0.20;99.90;;;;;;4897871;29;20513;-77
2023/03/16 02:27:51;;;;;;;10.47;4.37;;;0.10;99.90;;;;;;4899307;29;20422;-77
2023/03/16 02:30:21;;;;;;;8.40;5.60;;;0.20;99.90;;;;;;4897695;29;20469;-77
2023/03/16 02:33:00;;;;;;;11.13;4.80;;;0.10;99.90;;;;;;4898305;29;20513;-77
2023/03/16 02:35:28;;;;;;;6.30;4.00;;;0.10;99.90;;;;;;4897666;29;20461;-78
2023/03/16 02:37:57;;;;;;;6.43;4.03;;;0.10;99.90;;;;;;4897723;29;20460;-78
2023/03/16 02:40:32;;;;;;;7.77;4.20;;;0.10;99.90;;;;;;4897464;29;20837;-78
2023/03/16 02:43:07;;;;;;;6.80;4.43;;;0.10;99.90;;;;;;4898119;29;20456;-78
2023/03/16 02:45:45;;;;;;;6.43;4.70;;;0.00;99.90;;;;;;4897540;29;20947;-77
2023/03/16 02:48:21;;;;;;;6.60;3.90;;;0.00;99.90;;;;;;4897554;29;20506;-78
2023/03/16 02:50:52;;;;;;;7.27;4.43;;;0.00;99.90;;;;;;4897459;29;20505;-78
2023/03/16 02:53:21;;;;;;;6.50;3.83;;;0.00;99.90;;;;;;4897346;29;20958;-78
2023/03/16 02:55:50;;;;;;;6.73;4.23;;;0.00;99.90;;;;;;4897314;29;20460;-77
2023/03/16 02:58:19;;;;;;;7.87;5.00;;;0.00;99.90;;;;;;4897386;29;20449;-77
2023/03/16 03:00:48;;;;;;;7.30;4.40;;;0.00;99.90;;;;;;4898986;29;20484;-77
2023/03/16 03:03:17;;;;;;;7.60;4.73;;;0.00;99.90;;;;;;4900165;29;20449;-77
2023/03/16 03:05:46;;;;;;;8.13;4.60;;;0.00;99.90;;;;;;4900381;29;20842;-77
2023/03/16 03:08:15;;;;;;;7.23;4.53;;;0.00;99.90;;;;;;4901299;29;20457;-78
2023/03/16 03:10:43;;;;;;;6.43;4.40;;;0.00;99.90;;;;;;4901327;29;20521;-77
2023/03/16 03:13:12;;;;;;;6.67;4.23;;;0.00;99.90;;;;;;4900834;29;20457;-77
2023/03/16 03:15:40;;;;;;;5.50;3.90;;;0.00;99.90;;;;;;4901628;29;20488;-77
2023/03/16 03:18:13;;;;;;;7.87;5.30;;;0.00;99.90;;;;;;4901838;29;20457;-77
2023/03/16 03:20:41;;;;;;;6.63;4.23;;;-0.10;99.90;;;;;;4901712;29;20515;-77
2023/03/16 03:23:10;;;;;;;8.57;5.17;;;-0.10;99.90;;;;;;4900794;29;20481;-77
2023/03/16 03:25:41;;;;;;;7.70;4.87;;;-0.10;99.90;;;;;;4902489;29;20889;-77
2023/03/16 03:28:10;;;;;;;7.67;5.10;;;-0.10;99.90;;;;;;4904093;29;20458;-77
2023/03/16 03:30:38;;;;;;;8.83;5.57;;;-0.10;99.90;;;;;;4901279;29;20842;-78
2023/03/16 03:33:07;;;;;;;9.40;5.10;;;-0.10;99.90;;;;;;4900960;29;20524;-78
2023/03/16 03:35:40;;;;;;;7.40;5.27;;;-0.10;99.90;;;;;;4900957;29;20461;-77
2023/03/16 03:38:10;;;;;;;10.93;5.37;;;-0.10;99.90;;;;;;4901005;29;20476;-77
2023/03/16 03:40:39;;;;;;;7.23;5.10;;;-0.10;99.90;;;;;;4901846;29;20492;-77
2023/03/16 03:43:07;;;;;;;10.37;6.30;;;-0.10;99.90;;;;;;4901520;29;20536;-77
2023/03/16 03:45:40;;;;;;;8.77;5.77;;;-0.10;99.90;;;;;;4900892;29;20505;-77
2023/03/16 03:48:08;;;;;;;8.53;5.57;;;-0.10;99.90;;;;;;4900985;29;20828;-77
2023/03/16 03:50:39;;;;;;;8.70;6.00;;;-0.10;99.90;;;;;;4900666;29;20480;-77
2023/03/16 03:53:27;;;;;;;11.20;6.03;;;-0.10;99.90;;;;;;4901558;29;20461;-77
2023/03/16 03:56:16;;;;;;;10.03;6.27;;;-0.10;99.90;;;;;;4901512;29;20549;-78
2023/03/16 03:58:44;;;;;;;10.47;6.60;;;-0.10;99.90;;;;;;4900778;29;20555;-77
2023/03/16 04:01:18;;;;;;;9.00;6.07;;;-0.10;99.90;;;;;;4900586;29;20572;-77
2023/03/16 04:03:46;;;;;;;6.60;5.90;;;-0.10;99.90;;;;;;4901192;29;20449;-77
2023/03/16 04:06:17;;;;;;;13.40;6.83;;;-0.10;99.90;;;;;;4900521;29;20461;-77
2023/03/16 04:08:45;;;;;;;10.57;7.10;;;-0.10;99.90;;;;;;4900462;29;20505;-77
2023/03/16 04:11:18;;;;;;;9.23;6.97;;;-0.10;99.90;;;;;;4900308;29;20465;-77
2023/03/16 04:13:47;;;;;;;8.97;6.97;;;0.00;99.90;;;;;;4900257;29;20823;-77
2023/03/16 04:16:16;;;;;;;12.70;9.67;;;0.00;99.90;;;;;;4900283;29;20456;-77
2023/03/16 04:18:47;;;;;;;11.20;6.80;;;0.00;99.90;;;;;;4900365;29;20516;-77
2023/03/16 04:21:17;;;;;;;16.10;10.00;;;0.00;99.90;;;;;;4899918;29;20898;-77
2023/03/16 04:23:48;;;;;;;14.63;10.23;;;0.00;99.90;;;;;;4900068;29;20477;-77
2023/03/16 04:26:17;;;;;;;15.37;10.30;;;0.10;99.90;;;;;;4900074;29;20461;-77
2023/03/16 04:28:48;;;;;;;9.00;6.87;;;0.10;99.90;;;;;;4900024;29;20445;-77
2023/03/16 04:31:18;;;;;;;12.00;7.40;;;0.10;99.90;;;;;;4899897;29;20473;-77
2023/03/16 04:33:48;;;;;;;8.80;6.60;;;0.20;99.90;;;;;;4900029;29;20468;-77
2023/03/16 04:36:18;;;;;;;8.67;6.60;;;0.20;99.90;;;;;;4898972;29;20449;-78
2023/03/16 04:38:46;;;;;;;10.07;7.60;;;0.20;99.90;;;;;;4899564;29;20501;-77
2023/03/16 04:41:15;;;;;;;10.77;7.20;;;0.30;99.90;;;;;;4899505;29;20481;-78
2023/03/16 04:43:51;;;;;;;7.70;6.43;;;0.30;99.90;;;;;;4900558;29;20524;-78
2023/03/16 04:46:23;;;;;;;10.20;6.20;;;0.30;99.90;;;;;;4899422;29;20960;-77
2023/03/16 04:48:52;;;;;;;8.97;5.60;;;0.40;99.90;;;;;;4899783;29;20963;-77
2023/03/16 04:51:21;;;;;;;8.30;6.43;;;0.40;99.90;;;;;;4899560;29;20897;-77
2023/03/16 04:54:05;;;;;;;13.03;9.67;;;0.40;99.90;;;;;;4899982;29;20536;-77
2023/03/16 04:56:36;;;;;;;15.40;9.77;;;0.40;99.90;;;;;;4899280;29;20454;-77
2023/03/16 04:59:09;;;;;;;16.80;11.23;;;0.50;99.90;;;;;;4899291;29;20445;-77
2023/03/16 05:02:06;;;;;;;14.47;10.27;;;0.50;99.90;;;;;;4895917;29;20469;-77
2023/03/16 05:04:35;;;;;;;12.70;9.20;;;0.50;99.90;;;;;;4899559;29;20487;-77
2023/03/16 05:07:06;;;;;;;10.87;7.30;;;0.60;99.90;;;;;;4899192;29;20486;-76
2023/03/16 05:09:38;;;;;;;13.50;7.37;;;0.60;99.90;;;;;;4899154;29;20483;-77
2023/03/16 05:12:07;;;;;;;9.63;7.23;;;0.60;99.90;;;;;;4898990;29;20472;-77
2023/03/16 05:14:36;;;;;;;10.03;6.63;;;0.70;99.90;;;;;;4898995;29;20449;-77
2023/03/16 05:17:21;;;;;;;8.27;5.60;;;0.70;99.90;;;;;;4899137;29;20964;-77
2023/03/16 05:19:50;;;;;;;11.23;6.50;;;0.70;99.90;;;;;;4898951;29;20474;-76
2023/03/16 05:22:21;;;;;;;9.93;6.67;;;0.80;99.90;;;;;;4898731;29;20478;-77
2023/03/16 05:25:14;;;;;;;7.20;5.60;;;0.80;99.90;;;;;;4896919;29;20454;-76
2023/03/16 05:27:47;;;;;;;8.53;5.60;;;0.80;99.90;;;;;;4898817;29;20461;-76
2023/03/16 05:30:21;;;;;;;11.40;6.10;;;0.80;99.90;;;;;;4898716;29;20469;-77
2023/03/16 05:32:51;;;;;;;11.10;6.00;;;0.90;99.90;;;;;;4898984;29;20514;-77
2023/03/16 05:35:20;;;;;;;7.50;5.63;;;0.90;99.90;;;;;;4898788;29;20457;-77
2023/03/16 05:37:54;;;;;;;10.30;6.07;;;0.90;99.90;;;;;;4898860;29;20493;-77
2023/03/16 05:40:22;;;;;;;9.20;5.73;;;0.90;99.90;;;;;;4898340;29;20475;-77
2023/03/16 05:43:00;;;;;;;7.63;5.80;;;1.00;99.90;;;;;;4898610;29;20472;-77
2023/03/16 05:45:30;;;;;;;9.77;6.20;;;1.00;99.90;;;;;;4899202;29;20538;-77
2023/03/16 05:48:07;;;;;;;7.93;5.67;;;1.00;99.90;;;;;;4900246;29;20496;-79
2023/03/16 05:50:41;;;;;;;11.23;5.97;;;1.00;99.90;;;;;;4899280;29;20476;-77
2023/03/16 05:53:10;;;;;;;10.43;5.20;;;1.00;99.90;;;;;;4900107;29;20461;-79
2023/03/16 05:55:40;;;;;;;9.77;5.97;;;1.10;99.90;;;;;;4900542;29;20541;-78
2023/03/16 05:58:11;;;;;;;10.37;8.13;;;1.10;99.90;;;;;;4899892;29;20463;-79
2023/03/16 06:00:42;;;;;;;18.20;11.67;;;1.10;99.90;;;;;;4899344;29;20533;-78
2023/03/16 06:03:24;;;;;;;18.57;12.60;;;1.20;99.90;;;;;;4899210;29;20858;-78
2023/03/16 06:05:54;;;;;;;14.23;10.53;;;1.20;99.90;;;;;;4899064;29;20462;-76
2023/03/16 06:08:32;;;;;;;12.40;8.40;;;1.30;99.90;;;;;;4898359;29;20830;-76
2023/03/16 06:11:07;;;;;;;10.47;6.80;;;1.30;99.90;;;;;;4898283;29;20968;-76
2023/03/16 06:13:37;;;;;;;8.13;6.70;;;1.30;99.90;;;;;;4898478;29;20446;-76
2023/03/16 06:16:06;;;;;;;8.87;5.90;;;1.40;99.90;;;;;;4897847;29;20979;-76
2023/03/16 06:18:36;;;;;;;7.07;4.83;;;1.40;99.90;;;;;;4898087;29;20986;-77
2023/03/16 06:21:05;;;;;;;11.50;5.30;;;1.50;99.90;;;;;;4897961;29;20478;-77
2023/03/16 06:23:36;;;;;;;7.70;5.50;;;1.50;99.90;;;;;;4899559;29;20440;-78
2023/03/16 06:26:06;;;;;;;8.20;5.00;;;1.60;99.90;;;;;;4899885;29;20457;-79
2023/03/16 06:28:39;;;;;;;8.47;4.90;;;1.60;99.90;;;;;;4898926;29;20958;-77
2023/03/16 06:31:07;;;;;;;6.90;4.90;;;1.60;99.90;;;;;;4900666;29;20497;-78
2023/03/16 06:33:37;;;;;;;7.17;4.80;;;1.70;99.90;;;;;;4899601;29;20477;-78
2023/03/16 06:36:06;;;;;;;11.23;5.47;;;1.80;99.90;;;;;;4899603;29;20466;-79
2023/03/16 06:38:40;;;;;;;8.20;5.17;;;1.80;99.90;;;;;;4899505;29;20465;-79
2023/03/16 06:41:29;;;;;;;11.60;7.67;;;1.90;99.90;;;;;;4900926;29;20489;-79
2023/03/16 06:43:57;;;;;;;11.80;6.40;;;1.90;99.90;;;;;;4899583;29;20465;-79
2023/03/16 06:46:26;;;;;;;7.47;4.87;;;2.00;99.90;;;;;;4900373;29;20495;-79
2023/03/16 06:49:00;;;;;;;10.57;4.80;;;2.00;99.90;;;;;;4902846;29;20449;-79
2023/03/16 06:51:30;;;;;;;6.63;4.40;;;2.10;99.90;;;;;;4902612;29;20993;-79
2023/03/16 06:57:55;;;;;;;7.10;4.20;;;2.10;99.90;;;;;;4893681;29;20451;-81
2023/03/16 07:00:25;;;;;;;6.93;4.60;;;2.20;99.90;;;;;;4898032;29;20911;-77
2023/03/16 07:02:53;;;;;;;7.13;4.00;;;2.20;99.90;;;;;;4897397;29;20530;-77
2023/03/16 07:05:34;;;;;;;9.17;6.80;;;2.30;99.90;;;;;;4898320;29;20463;-77
2023/03/16 07:08:10;;;;;;;7.90;4.90;;;2.30;99.90;;;;;;4897969;29;20540;-77
2023/03/16 07:10:41;;;;;;;5.70;4.30;;;2.40;99.90;;;;;;4897848;29;20654;-78
2023/03/16 07:13:10;;;;;;;7.63;4.50;;;2.40;99.90;;;;;;4902370;29;20468;-79
2023/03/16 07:15:43;;;;;;;7.53;4.80;;;2.50;99.90;;;;;;4900373;29;20457;-79
2023/03/16 07:18:12;;;;;;;5.23;3.50;;;2.50;99.90;;;;;;4901104;29;20465;-79
2023/03/16 07:20:43;;;;;;;6.17;4.00;;;2.60;99.90;;;;;;4901244;29;20478;-79
2023/03/16 07:23:12;;;;;;;7.27;4.10;;;2.60;99.90;;;;;;4900844;29;20483;-79
2023/03/16 07:25:43;;;;;;;6.10;4.40;;;2.70;99.90;;;;;;4901336;29;20497;-79
2023/03/16 07:28:13;;;;;;;7.57;4.10;;;2.70;99.90;;;;;;4905011;29;20441;-79
2023/03/16 07:30:44;;;;;;;10.90;6.23;;;2.80;99.90;;;;;;4897841;29;20562;-77
2023/03/16 07:33:31;;;;;;;7.30;4.90;;;2.80;99.90;;;;;;4897615;29;20511;-77
2023/03/16 07:36:03;;;;;;;7.20;4.10;;;2.90;99.90;;;;;;4897253;29;20468;-77
2023/03/16 07:38:32;;;;;;;5.40;3.53;;;2.90;99.90;;;;;;4897137;29;20457;-77
2023/03/16 07:41:01;;;;;;;9.53;4.50;;;3.10;99.90;;;;;;4897078;29;20504;-77
2023/03/16 07:43:30;;;;;;;8.33;4.53;;;3.10;99.90;;;;;;4898504;29;20475;-77
2023/03/16 07:46:00;;;;;;;7.97;4.50;;;3.10;99.90;;;;;;4897062;29;20488;-78
2023/03/16 07:48:29;;;;;;;7.83;5.37;;;3.20;99.90;;;;;;4897164;29;20455;-78
2023/03/16 07:51:02;;;;;;;7.83;4.20;;;3.30;99.90;;;;;;4897171;29;20477;-77
2023/03/16 07:53:31;;;;;;;9.03;4.50;;;3.40;99.90;;;;;;4898948;29;20519;-79
2023/03/16 07:56:14;;;;;;;7.77;4.20;;;3.50;99.90;;;;;;4899982;29;20445;-80
2023/03/16 07:58:47;;;;;;;8.10;3.83;;;3.60;99.90;;;;;;4900851;29;20787;-80
2023/03/16 08:01:16;;;;;;;7.20;4.50;;;3.60;99.90;;;;;;4901022;29;20471;-80
2023/03/16 08:03:44;;;;;;;9.67;4.60;;;3.70;99.90;;;;;;4900317;29;20477;-79
2023/03/16 08:06:15;;;;;;;8.20;5.20;;;3.80;99.90;;;;;;4899327;29;20452;-80
2023/03/16 08:08:43;;;;;;;6.77;3.67;;;3.90;99.90;;;;;;4899431;29;20497;-80
2023/03/16 08:11:22;;;;;;;7.27;4.53;;;4.00;99.90;;;;;;4900239;29;20499;-80
2023/03/16 08:13:57;;;;;;;7.27;4.07;;;4.00;99.90;;;;;;4903056;29;20485;-80
2023/03/16 08:16:39;;;;;;;6.13;4.10;;;4.10;99.90;;;;;;4903059;29;20551;-80
2023/03/16 08:19:07;;;;;;;6.70;3.90;;;4.20;99.90;;;;;;4902712;29;20833;-80
2023/03/16 08:21:36;;;;;;;5.83;3.90;;;4.20;99.90;;;;;;4903020;29;20562;-80
2023/03/16 08:24:25;;;;;;;6.70;4.30;;;4.30;99.90;;;;;;4903133;29;20472;-81
2023/03/16 08:26:55;;;;;;;7.83;4.43;;;4.40;99.90;;;;;;4903667;29;20504;-81
2023/03/16 08:29:25;;;;;;;8.10;5.13;;;4.40;99.90;;;;;;4902912;29;20488;-82
2023/03/16 08:31:55;;;;;;;6.07;4.20;;;4.60;99.90;;;;;;4903340;29;20541;-81
2023/03/16 08:34:30;;;;;;;9.60;5.40;;;4.70;99.90;;;;;;4904134;29;20804;-82
2023/03/16 08:37:00;;;;;;;7.90;5.00;;;4.80;99.90;;;;;;4903317;29;20519;-79
2023/03/16 08:39:29;;;;;;;6.47;4.60;;;4.90;99.90;;;;;;4904216;29;20881;-79
2023/03/16 08:41:57;;;;;;;9.00;4.83;;;5.00;99.90;;;;;;4903759;29;20449;-79
2023/03/16 08:44:37;;;;;;;7.50;4.87;;;5.00;99.90;;;;;;4903472;29;20461;-82
2023/03/16 08:47:05;;;;;;;7.83;4.60;;;5.10;99.90;;;;;;4903164;29;20460;-82
2023/03/16 08:49:35;;;;;;;6.80;4.20;;;5.20;99.90;;;;;;4903047;29;20563;-79
2023/03/16 08:52:11;;;;;;;7.40;4.47;;;5.30;99.90;;;;;;4903967;29;20446;-80
2023/03/16 08:54:40;;;;;;;6.30;4.87;;;5.40;99.90;;;;;;4904368;29;20421;-79
2023/03/16 08:57:20;;;;;;;6.00;4.17;;;5.40;99.90;;;;;;4902834;29;20825;-79
2023/03/16 08:59:49;;;;;;;6.30;4.43;;;5.50;99.90;;;;;;4902895;29;20469;-79
2023/03/16 09:02:18;;;;;;;7.40;4.80;;;5.50;99.90;;;;;;4902925;29;20473;-81
2023/03/16 09:04:46;;;;;;;7.00;4.33;;;5.60;99.90;;;;;;4902328;29;20484;-82
2023/03/16 09:07:14;;;;;;;6.97;4.23;;;5.70;99.90;;;;;;4902518;29;20460;-80
2023/03/16 09:09:42;;;;;;;7.13;4.40;;;5.70;99.90;;;;;;4902740;29;20482;-79
2023/03/16 09:12:11;;;;;;;10.97;4.90;;;5.80;99.90;;;;;;4901770;29;20449;-79
2023/03/16 09:14:39;;;;;;;6.53;4.50;;;5.90;99.90;;;;;;4903032;29;20660;-80
2023/03/16 09:17:10;;;;;;;6.90;4.60;;;6.00;99.90;;;;;;4902264;29;20450;-81
2023/03/16 09:19:39;;;;;;;7.23;4.13;;;6.10;99.90;;;;;;4902691;29;21058;-81
2023/03/16 09:22:18;;;;;;;6.50;4.20;;;6.20;99.90;;;;;;4902253;29;20548;-81
2023/03/16 09:24:47;;;;;;;6.53;4.23;;;6.30;99.90;;;;;;4902155;29;20473;-81
2023/03/16 09:27:15;;;;;;;6.60;4.30;;;6.30;99.90;;;;;;4902526;29;20465;-81
2023/03/16 09:29:44;;;;;;;7.30;4.20;;;6.40;99.90;;;;;;4902537;29;20568;-81
2023/03/16 09:32:14;;;;;;;5.90;4.10;;;6.50;99.90;;;;;;4902561;29;20454;-81
2023/03/16 09:34:43;;;;;;;7.50;4.27;;;6.60;99.90;;;;;;4901912;29;20457;-81
2023/03/16 09:37:11;;;;;;;6.20;4.37;;;6.70;99.90;;;;;;4902026;29;20457;-81
2023/03/16 09:39:40;;;;;;;8.30;4.43;;;6.70;99.90;;;;;;4903849;29;20999;-81
2023/03/16 09:42:16;;;;;;;6.40;4.30;;;6.80;99.90;;;;;;4903860;29;20449;-80
2023/03/16 09:44:54;;;;;;;6.23;4.10;;;6.80;99.90;;;;;;4902005;29;20533;-81
2023/03/16 09:47:28;;;;;;;7.00;4.17;;;6.90;99.90;;;;;;4901985;29;20550;-81
2023/03/16 09:50:00;;;;;;;6.10;4.20;;;6.90;99.90;;;;;;4902280;29;20513;-81
2023/03/16 09:52:34;;;;;;;6.93;4.40;;;7.00;99.90;;;;;;4902849;29;20497;-81
2023/03/16 09:55:08;;;;;;;5.40;3.67;;;7.00;99.90;;;;;;4902020;29;20864;-81
2023/03/16 09:57:41;;;;;;;5.97;3.90;;;7.00;99.90;;;;;;4902125;29;20483;-81
2023/03/16 10:00:17;;;;;;;5.90;4.30;;;7.10;99.90;;;;;;4901985;29;20516;-80
2023/03/16 10:03:05;;;;;;;8.03;4.17;;;7.10;99.90;;;;;;4901972;29;20482;-80
2023/03/16 10:05:33;;;;;;;6.37;3.70;;;7.20;99.90;;;;;;4901789;29;20447;-81
2023/03/16 10:08:12;;;;;;;8.27;3.80;;;7.20;99.90;;;;;;4903145;29;20511;-79
2023/03/16 10:11:01;;;;;;;5.77;3.77;;;7.20;99.90;;;;;;4902075;29;20519;-79
2023/03/16 10:13:37;;;;;;;6.27;4.13;;;7.20;99.90;;;;;;4902106;29;20443;-79
2023/03/16 10:16:11;;;;;;;5.90;4.20;;;7.30;99.90;;;;;;4901504;29;20456;-80
2023/03/16 10:18:44;;;;;;;9.00;4.60;;;7.30;99.90;;;;;;4901584;29;20449;-80
2023/03/16 10:21:15;;;;;;;10.57;4.03;;;7.40;99.90;;;;;;4901338;29;20515;-79
2023/03/16 10:23:45;;;;;;;5.53;3.80;;;7.40;99.90;;;;;;4901510;29;20840;-79
2023/03/16 10:26:17;;;;;;;5.43;3.60;;;7.50;99.90;;;;;;4901278;29;20884;-79
2023/03/16 10:28:45;;;;;;;5.30;3.73;;;7.60;99.90;;;;;;4901913;29;20459;-79
2023/03/16 10:31:16;;;;;;;6.30;4.20;;;7.60;99.90;;;;;;4900765;29;20997;-79
2023/03/16 10:33:48;;;;;;;7.70;4.10;;;7.70;99.90;;;;;;4900815;29;20555;-80
2023/03/16 10:36:24;;;;;;;5.90;3.90;;;7.80;99.90;;;;;;4900535;29;20444;-79
2023/03/16 10:38:54;;;;;;;6.87;4.10;;;7.80;99.90;;;;;;4900676;29;20512;-79
2023/03/16 10:41:27;;;;;;;6.10;3.90;;;7.80;99.90;;;;;;4900730;29;21068;-79
2023/03/16 10:43:57;;;;;;;5.77;3.80;;;8.00;99.90;;;;;;4903248;29;20562;-79
2023/03/16 10:46:27;;;;;;;6.70;3.90;;;8.00;99.90;;;;;;4901550;29;20557;-79
2023/03/16 10:48:59;;;;;;;5.07;3.80;;;8.10;99.90;;;;;;4903518;29;20433;-79
2023/03/16 10:51:30;;;;;;;5.73;4.30;;;8.10;99.90;;;;;;4902351;29;20819;-79
2023/03/16 10:54:09;;;;;;;6.20;3.83;;;8.20;99.90;;;;;;4901513;29;20466;-79
2023/03/16 10:56:39;;;;;;;6.30;3.90;;;8.30;99.90;;;;;;4902617;29;20501;-77
2023/03/16 10:59:26;;;;;;;6.13;3.63;;;8.30;99.90;;;;;;4897400;29;20801;-77
2023/03/16 11:01:55;;;;;;;6.33;4.43;;;8.40;99.90;;;;;;4899056;29;20456;-78
2023/03/16 11:04:25;;;;;;;4.47;3.17;;;8.50;99.90;;;;;;4897880;29;20480;-77
2023/03/16 11:06:56;;;;;;;5.70;3.50;;;8.50;99.90;;;;;;4899670;29;20457;-80
2023/03/16 11:09:31;;;;;;;6.67;4.50;;;8.60;99.90;;;;;;4903684;29;20555;-81
2023/03/16 11:12:02;;;;;;;5.40;3.60;;;8.60;99.90;;;;;;4905642;29;20425;-81
2023/03/16 11:14:36;;;;;;;5.83;3.73;;;8.70;99.90;;;;;;4903784;29;20437;-81
2023/03/16 11:17:11;;;;;;;6.43;4.33;;;8.80;99.90;;;;;;4903324;29;20501;-81
2023/03/16 11:19:45;;;;;;;5.40;3.40;;;8.80;99.90;;;;;;4902933;29;20474;-81
2023/03/16 11:22:17;;;;;;;4.97;3.20;;;8.90;99.90;;;;;;4903442;29;20472;-81
2023/03/16 11:24:50;;;;;;;6.60;3.50;;;9.00;99.90;;;;;;4902327;29;20469;-80
2023/03/16 11:27:23;;;;;;;4.53;3.80;;;9.00;99.90;;;;;;4900133;29;20450;-80
2023/03/16 11:30:08;;;;;;;6.50;4.20;;;9.10;99.90;;;;;;4901689;29;20520;-79
2023/03/16 11:32:38;;;;;;;9.63;4.10;;;9.20;99.90;;;;;;4899973;29;20455;-79
2023/03/16 11:35:16;;;;;;;5.80;3.63;;;9.20;99.90;;;;;;4900986;29;20445;-80
2023/03/16 11:37:57;;;;;;;6.37;3.63;;;9.30;99.90;;;;;;4899394;29;20830;-80
2023/03/16 11:40:38;;;;;;;8.60;6.30;;;9.40;99.90;;;;;;4899791;29;20845;-79
2023/03/16 11:43:20;;;;;;;6.33;4.40;;;9.40;99.90;;;;;;4899877;29;20516;-80
2023/03/16 11:45:54;;;;;;;6.30;4.30;;;9.50;99.90;;;;;;4900570;29;20469;-80
2023/03/16 11:48:28;;;;;;;6.10;4.57;;;9.60;99.90;;;;;;4904096;29;20445;-79
2023/03/16 11:51:05;;;;;;;7.10;5.17;;;9.60;99.90;;;;;;4905299;29;20467;-80
2023/03/16 11:53:44;;;;;;;5.10;3.50;;;9.70;99.90;;;;;;4903686;29;20985;-80
2023/03/16 11:56:20;;;;;;;6.13;4.83;;;9.70;99.90;;;;;;4903570;29;20476;-80
2023/03/16 11:59:00;;;;;;;6.23;4.00;;;9.80;99.90;;;;;;4901416;29;20437;-78
2023/03/16 12:01:41;;;;;;;6.90;4.00;;;9.80;99.90;;;;;;4902172;29;20485;-79
2023/03/16 12:04:40;;;;;;;5.90;4.30;;;9.90;99.90;;;;;;4901577;29;20473;-79
2023/03/16 12:07:35;;;;;;;5.70;3.57;;;10.00;99.90;;;;;;4902135;29;20445;-79
2023/03/16 12:10:22;;;;;;;5.33;3.73;;;10.10;99.90;;;;;;4901842;29;20485;-79
2023/03/16 12:13:09;;;;;;;6.50;5.33;;;10.10;99.90;;;;;;4901858;29;20475;-77
2023/03/16 12:15:46;;;;;;;6.47;4.90;;;10.20;99.90;;;;;;4902389;29;20448;-79
2023/03/16 12:18:18;;;;;;;5.77;4.50;;;10.20;99.90;;;;;;4903075;29;20427;-79
2023/03/16 12:20:53;;;;;;;6.03;4.60;;;10.20;99.90;;;;;;4903024;29;20477;-79
2023/03/16 12:23:33;;;;;;;6.57;4.50;;;10.30;99.90;;;;;;4902403;29;20455;-79
2023/03/16 12:26:02;;;;;;;6.83;4.37;;;10.20;99.90;;;;;;4902077;29;20465;-77
2023/03/16 12:28:32;;;;;;;6.40;4.20;;;10.20;99.90;;;;;;4902214;29;20441;-78
2023/03/16 12:31:11;;;;;;;6.53;4.00;;;10.30;99.90;;;;;;4900888;29;20488;-79
2023/03/16 12:33:57;;;;;;;7.23;3.90;;;10.30;99.90;;;;;;4901501;29;20532;-78
2023/03/16 12:36:39;;;;;;;5.87;4.47;;;10.30;99.90;;;;;;4902510;29;20440;-79
2023/03/16 12:39:17;;;;;;;7.10;4.40;;;10.30;99.90;;;;;;4901533;29;20465;-79
2023/03/16 12:41:58;;;;;;;6.00;4.10;;;10.30;99.90;;;;;;4901414;29;21010;-79
2023/03/16 12:44:35;;;;;;;5.73;4.20;;;10.30;99.90;;;;;;4901571;29;20453;-79
2023/03/16 12:47:09;;;;;;;7.13;4.20;;;10.30;99.90;;;;;;4901357;29;21005;-79
2023/03/16 12:49:38;;;;;;;6.00;4.13;;;10.30;99.90;;;;;;4901158;29;20477;-79
2023/03/16 12:52:08;;;;;;;5.90;4.23;;;10.30;99.90;;;;;;4901510;29;20460;-79
2023/03/16 12:54:50;;;;;;;5.50;4.00;;;10.30;99.90;;;;;;4901408;29;20505;-79
2023/03/16 12:57:19;;;;;;;5.10;4.10;;;10.30;99.90;;;;;;4903016;29;20441;-79
2023/03/16 12:59:50;;;;;;;7.07;3.83;;;10.30;99.90;;;;;;4901562;29;20491;-80
2023/03/16 13:02:21;;;;;;;7.70;4.40;;;10.20;99.90;;;;;;4903470;29;20804;-80
2023/03/16 13:04:57;;;;;;;5.87;4.57;;;10.20;99.90;;;;;;4903985;29;20532;-80
2023/03/16 13:07:29;;;;;;;7.80;4.90;;;10.20;99.90;;;;;;4903216;29;20448;-80
2023/03/16 13:10:07;;;;;;;6.57;4.23;;;10.20;99.90;;;;;;4903018;29;20505;-77
2023/03/16 13:12:37;;;;;;;7.10;4.30;;;10.20;99.90;;;;;;4904070;29;20517;-79
2023/03/16 13:15:25;;;;;;;7.03;5.80;;;10.20;99.90;;;;;;4903311;29;20468;-80
2023/03/16 13:18:05;;;;;;;5.97;4.73;;;10.20;99.90;;;;;;4903144;29;20449;-80
2023/03/16 13:20:34;;;;;;;6.70;4.43;;;10.20;99.90;;;;;;4904174;29;20496;-80
2023/03/16 13:23:22;;;;;;;6.30;4.70;;;10.20;99.90;;;;;;4902774;29;20665;-80
2023/03/16 13:26:05;;;;;;;6.00;5.00;;;10.20;99.90;;;;;;4903119;29;20465;-80